Time;durP1;ratioP1;P1;durP2;ratioP2;P2;SDS_P1;SDS_P2;PMS_P1;PMS_P2;Temp;Humidity;BMP_temperature;BMP_pressure;BME280_temperature;BME280_humidity;BME280_pressure;Samples;Min_cycle;Max_cycle;Signal;HPM_P1;HPM_P2
2020/12/21 00:00:32;;;;;;;17.07;15.33;;;;;;;;;;5033353;28;20442;-81
2020/12/21 00:02:58;;;;;;;20.23;18.00;;;;;;;;;;5002248;28;20547;-80
2020/12/21 00:05:24;;;;;;;18.50;16.17;;;;;;;;;;5014705;28;20456;-81
2020/12/21 00:07:51;;;;;;;19.92;17.83;;;;;;;;;;5013853;28;20268;-81
2020/12/21 00:10:17;;;;;;;22.70;19.70;;;;;;;;;;5019739;28;20176;-81
2020/12/21 00:12:44;;;;;;;18.33;15.17;;;;;;;;;;5016762;28;20533;-81
2020/12/21 00:15:10;;;;;;;42.25;36.35;;;;;;;;;;5022787;28;20493;-79
2020/12/21 00:17:42;;;;;;;20.30;18.02;;;;;;;;;;5015436;28;20164;-80
2020/12/21 00:20:08;;;;;;;18.20;14.82;;;;;;;;;;5012044;28;20165;-81
2020/12/21 00:22:34;;;;;;;18.70;16.80;;;;;;;;;;5020643;28;20202;-81
2020/12/21 00:25:00;;;;;;;29.70;26.03;;;;;;;;;;5030156;28;20422;-81
2020/12/21 00:27:26;;;;;;;21.80;18.23;;;;;;;;;;5028915;28;20431;-82
2020/12/21 00:29:52;;;;;;;23.83;18.03;;;;;;;;;;5020899;28;20180;-82
2020/12/21 00:32:19;;;;;;;20.83;18.63;;;;;;;;;;5029511;28;20450;-82
2020/12/21 00:34:45;;;;;;;19.10;17.10;;;;;;;;;;5022816;28;20439;-82
2020/12/21 00:37:11;;;;;;;21.02;18.10;;;;;;;;;;5000067;28;20434;-81
2020/12/21 00:39:41;;;;;;;18.17;16.30;;;;;;;;;;5003425;28;20187;-81
2020/12/21 00:42:07;;;;;;;27.37;23.90;;;;;;;;;;5001817;28;20471;-81
2020/12/21 00:44:33;;;;;;;26.37;23.33;;;;;;;;;;5020206;28;20435;-82
2020/12/21 00:46:59;;;;;;;18.23;16.48;;;;;;;;;;5010812;28;20431;-81
2020/12/21 00:49:25;;;;;;;18.88;15.45;;;;;;;;;;5001650;28;20172;-81
2020/12/21 00:51:51;;;;;;;22.87;18.27;;;;;;;;;;5014004;28;20295;-81
2020/12/21 00:54:18;;;;;;;20.33;17.73;;;;;;;;;;5003017;28;20431;-82
2020/12/21 00:56:44;;;;;;;20.23;15.57;;;;;;;;;;5001909;28;20641;-82
2020/12/21 00:59:10;;;;;;;21.10;17.20;;;;;;;;;;5005625;28;20422;-82
2020/12/21 01:01:36;;;;;;;19.02;15.32;;;;;;;;;;5002147;28;20183;-82
2020/12/21 01:04:04;;;;;;;22.35;19.10;;;;;;;;;;5001457;28;20180;-82
2020/12/21 01:06:32;;;;;;;17.40;15.63;;;;;;;;;;5002152;28;20181;-81
2020/12/21 01:08:58;;;;;;;18.33;16.50;;;;;;;;;;4999951;28;20431;-81
2020/12/21 01:11:28;;;;;;;19.27;16.03;;;;;;;;;;5002764;28;20462;-81
2020/12/21 01:13:54;;;;;;;18.90;16.87;;;;;;;;;;4993833;28;20428;-81
2020/12/21 01:16:22;;;;;;;17.97;16.30;;;;;;;;;;4981133;28;20471;-81
2020/12/21 01:18:49;;;;;;;18.27;16.10;;;;;;;;;;4964829;28;20417;-81
2020/12/21 01:21:25;;;;;;;18.40;16.47;;;;;;;;;;4989713;28;20510;-81
2020/12/21 01:23:52;;;;;;;21.87;19.27;;;;;;;;;;5001261;28;20558;-81
2020/12/21 01:26:19;;;;;;;19.03;17.10;;;;;;;;;;4986492;28;20431;-81
2020/12/21 01:28:45;;;;;;;18.50;16.73;;;;;;;;;;4982713;28;20412;-81
2020/12/21 01:31:11;;;;;;;20.58;18.45;;;;;;;;;;4981512;28;20864;-82
2020/12/21 01:33:37;;;;;;;18.10;16.38;;;;;;;;;;4982510;28;20200;-82
2020/12/21 01:36:03;;;;;;;22.25;19.35;;;;;;;;;;4992437;28;20199;-82
2020/12/21 01:38:29;;;;;;;18.90;16.25;;;;;;;;;;5001150;28;20188;-82
2020/12/21 01:40:55;;;;;;;20.30;18.13;;;;;;;;;;5001238;28;20172;-81
2020/12/21 01:43:21;;;;;;;23.02;17.55;;;;;;;;;;4995356;28;20448;-82
2020/12/21 01:45:47;;;;;;;18.45;16.55;;;;;;;;;;5001897;28;20193;-82
2020/12/21 01:48:14;;;;;;;23.48;18.23;;;;;;;;;;5008891;28;20172;-82
2020/12/21 01:50:40;;;;;;;16.38;14.77;;;;;;;;;;5003717;28;20188;-82
2020/12/21 01:53:10;;;;;;;19.90;17.83;;;;;;;;;;5001255;28;20208;-82
2020/12/21 01:55:37;;;;;;;21.75;18.75;;;;;;;;;;5001305;28;20169;-81
2020/12/21 01:58:03;;;;;;;19.70;16.07;;;;;;;;;;4981613;28;20157;-81
2020/12/21 02:00:29;;;;;;;20.38;17.77;;;;;;;;;;4997580;28;20926;-82
2020/12/21 02:02:56;;;;;;;20.27;16.70;;;;;;;;;;5001491;28;20188;-83
2020/12/21 02:05:22;;;;;;;22.07;19.73;;;;;;;;;;5011989;28;20415;-82
2020/12/21 02:07:48;;;;;;;20.55;16.02;;;;;;;;;;5018011;28;20424;-82
2020/12/21 02:10:15;;;;;;;21.70;17.93;;;;;;;;;;5017390;28;20292;-82
2020/12/21 02:12:41;;;;;;;23.08;18.10;;;;;;;;;;5016617;28;20614;-83
2020/12/21 02:15:07;;;;;;;18.50;16.50;;;;;;;;;;5012142;28;20164;-82
2020/12/21 02:17:33;;;;;;;20.43;18.33;;;;;;;;;;5000960;28;20428;-81
2020/12/21 02:19:59;;;;;;;19.43;17.00;;;;;;;;;;4998843;28;20462;-82
2020/12/21 02:22:26;;;;;;;20.90;17.17;;;;;;;;;;5015792;28;20447;-81
2020/12/21 02:24:52;;;;;;;21.70;18.87;;;;;;;;;;5003705;28;20441;-81
2020/12/21 02:27:18;;;;;;;18.87;16.83;;;;;;;;;;5005733;28;20430;-81
2020/12/21 02:29:44;;;;;;;19.23;17.23;;;;;;;;;;5019134;28;20464;-81
2020/12/21 02:32:10;;;;;;;21.57;17.10;;;;;;;;;;5002563;28;20467;-81
2020/12/21 02:34:37;;;;;;;20.30;18.33;;;;;;;;;;4998905;28;20428;-81
2020/12/21 02:37:03;;;;;;;21.67;19.37;;;;;;;;;;5014020;28;20549;-81
2020/12/21 02:39:29;;;;;;;26.40;17.90;;;;;;;;;;5007243;28;20466;-81
2020/12/21 02:41:55;;;;;;;21.80;18.23;;;;;;;;;;5006445;28;20461;-81
2020/12/21 02:44:21;;;;;;;24.10;19.67;;;;;;;;;;5017058;28;20431;-81
2020/12/21 02:46:47;;;;;;;20.90;18.50;;;;;;;;;;5019449;28;20430;-81
2020/12/21 02:49:14;;;;;;;21.02;18.80;;;;;;;;;;4988335;28;20423;-81
2020/12/21 02:51:40;;;;;;;19.42;17.52;;;;;;;;;;5005960;28;20269;-81
2020/12/21 02:54:06;;;;;;;18.30;16.00;;;;;;;;;;4999964;28;20177;-81
2020/12/21 02:56:32;;;;;;;19.13;17.27;;;;;;;;;;4999558;28;20416;-81
2020/12/21 02:58:58;;;;;;;18.10;16.03;;;;;;;;;;5007802;28;20403;-81
2020/12/21 03:01:25;;;;;;;19.80;17.80;;;;;;;;;;5007529;28;20867;-82
2020/12/21 03:03:51;;;;;;;21.23;17.87;;;;;;;;;;5013363;28;20476;-82
2020/12/21 03:06:17;;;;;;;19.20;17.20;;;;;;;;;;5023575;28;20446;-82
2020/12/21 03:08:43;;;;;;;18.93;16.93;;;;;;;;;;5008253;28;20779;-82
2020/12/21 03:11:10;;;;;;;19.10;15.90;;;;;;;;;;5003535;28;20550;-82
2020/12/21 03:13:49;;;;;;;19.67;17.83;;;;;;;;;;5002685;28;20443;-82
2020/12/21 03:16:15;;;;;;;19.77;17.73;;;;;;;;;;5004265;28;20207;-82
2020/12/21 03:18:41;;;;;;;21.80;19.53;;;;;;;;;;5013330;28;20178;-82
2020/12/21 03:21:07;;;;;;;20.37;17.00;;;;;;;;;;5016016;28;20450;-82
2020/12/21 03:23:34;;;;;;;22.67;18.57;;;;;;;;;;5017615;28;20975;-81
2020/12/21 03:26:00;;;;;;;21.03;18.37;;;;;;;;;;5018551;28;20428;-81
2020/12/21 03:28:26;;;;;;;21.00;17.70;;;;;;;;;;5016556;28;20407;-81
2020/12/21 03:30:52;;;;;;;20.93;18.93;;;;;;;;;;5019684;28;20450;-81
2020/12/21 03:33:18;;;;;;;21.33;18.43;;;;;;;;;;5021348;28;20522;-81
2020/12/21 03:35:44;;;;;;;18.97;16.93;;;;;;;;;;5015192;28;20979;-81
2020/12/21 03:38:11;;;;;;;23.87;18.43;;;;;;;;;;5000587;28;20458;-81
2020/12/21 03:40:37;;;;;;;18.47;16.50;;;;;;;;;;5004123;28;20455;-82
2020/12/21 03:43:03;;;;;;;20.17;18.13;;;;;;;;;;5006715;28;20450;-82
2020/12/21 03:45:30;;;;;;;21.87;17.83;;;;;;;;;;5019175;28;20428;-82
2020/12/21 03:47:56;;;;;;;20.67;18.40;;;;;;;;;;5022464;28;20436;-83
2020/12/21 03:50:22;;;;;;;19.87;16.60;;;;;;;;;;5025635;28;20411;-83
2020/12/21 03:52:49;;;;;;;18.13;16.20;;;;;;;;;;5032390;28;20460;-81
2020/12/21 03:55:15;;;;;;;21.43;19.33;;;;;;;;;;5002898;28;20926;-82
2020/12/21 03:57:41;;;;;;;21.00;18.07;;;;;;;;;;5002817;28;20430;-82
2020/12/21 04:00:08;;;;;;;19.50;17.60;;;;;;;;;;5003580;28;20511;-82
2020/12/21 04:02:40;;;;;;;21.80;19.53;;;;;;;;;;5011615;28;20498;-82
2020/12/21 04:05:07;;;;;;;21.37;18.63;;;;;;;;;;5022022;28;20396;-82
2020/12/21 04:07:35;;;;;;;20.80;18.80;;;;;;;;;;4982587;28;20491;-82
2020/12/21 04:10:02;;;;;;;20.87;18.87;;;;;;;;;;5014114;28;20931;-82
2020/12/21 04:12:28;;;;;;;21.23;16.90;;;;;;;;;;4994802;28;20858;-82
2020/12/21 04:14:54;;;;;;;24.83;18.43;;;;;;;;;;5012678;28;20492;-82
2020/12/21 04:17:23;;;;;;;19.97;17.57;;;;;;;;;;5000235;28;20455;-82
2020/12/21 04:19:53;;;;;;;30.60;19.93;;;;;;;;;;4994726;28;20450;-81
2020/12/21 04:22:19;;;;;;;19.70;17.67;;;;;;;;;;4997120;28;20447;-81
2020/12/21 04:24:45;;;;;;;22.13;16.73;;;;;;;;;;5015529;28;20411;-81
2020/12/21 04:27:12;;;;;;;23.00;18.67;;;;;;;;;;5012715;28;20427;-82
2020/12/21 04:29:38;;;;;;;20.87;16.27;;;;;;;;;;4992756;28;20963;-82
2020/12/21 04:32:04;;;;;;;22.73;19.77;;;;;;;;;;4984625;28;20466;-81
2020/12/21 04:34:30;;;;;;;19.85;17.88;;;;;;;;;;5003861;28;20404;-81
2020/12/21 04:36:57;;;;;;;20.30;18.23;;;;;;;;;;4999842;28;20200;-82
2020/12/21 04:39:23;;;;;;;23.17;20.67;;;;;;;;;;5005376;28;20419;-81
2020/12/21 04:41:53;;;;;;;20.03;17.93;;;;;;;;;;5007102;28;20442;-81
2020/12/21 04:44:19;;;;;;;20.43;18.40;;;;;;;;;;5023254;28;20419;-82
2020/12/21 04:46:47;;;;;;;20.08;17.88;;;;;;;;;;5004110;28;20562;-82
2020/12/21 04:49:14;;;;;;;18.73;16.80;;;;;;;;;;5008851;28;20696;-81
2020/12/21 04:51:41;;;;;;;21.63;19.33;;;;;;;;;;5005955;28;20546;-82
2020/12/21 04:54:09;;;;;;;21.70;18.23;;;;;;;;;;5011680;28;20519;-81
2020/12/21 04:56:49;;;;;;;;;;;;;;;;;;;;;
2020/12/21 04:59:15;;;;;;;17.97;16.17;;;;;;;;;;5023526;28;20411;-81
2020/12/21 05:01:45;;;;;;;21.43;17.87;;;;;;;;;;5009953;28;20469;-82
2020/12/21 05:04:14;;;;;;;19.33;17.20;;;;;;;;;;5021973;28;20465;-80
2020/12/21 05:06:49;;;;;;;21.63;16.93;;;;;;;;;;5006179;28;21410;-81
2020/12/21 05:09:15;;;;;;;22.33;20.00;;;;;;;;;;5000272;28;20804;-82
2020/12/21 05:11:52;;;;;;;19.07;17.07;;;;;;;;;;5000968;28;20460;-81
2020/12/21 05:14:18;;;;;;;21.97;19.73;;;;;;;;;;5009086;28;20961;-81
2020/12/21 05:16:44;;;;;;;23.17;18.60;;;;;;;;;;5010867;28;20423;-81
2020/12/21 05:19:21;;;;;;;25.00;19.90;;;;;;;;;;5001223;28;20871;-81
2020/12/21 05:21:54;;;;;;;28.23;19.50;;;;;;;;;;5020966;28;20437;-82
2020/12/21 05:24:21;;;;;;;24.13;19.20;;;;;;;;;;5033417;28;20408;-82
2020/12/21 05:26:48;;;;;;;19.90;17.93;;;;;;;;;;5018712;28;20407;-82
2020/12/21 05:29:23;;;;;;;22.37;19.90;;;;;;;;;;5013022;28;20464;-82
2020/12/21 05:31:52;;;;;;;20.53;18.47;;;;;;;;;;4986125;28;20470;-82
2020/12/21 05:34:28;;;;;;;21.47;18.97;;;;;;;;;;4999778;28;20419;-81
2020/12/21 05:36:54;;;;;;;23.67;20.00;;;;;;;;;;5014704;28;20423;-81
2020/12/21 05:39:20;;;;;;;21.90;17.60;;;;;;;;;;5002193;28;20562;-81
2020/12/21 05:41:47;;;;;;;20.43;18.23;;;;;;;;;;4987619;28;20447;-81
2020/12/21 05:44:13;;;;;;;20.67;18.60;;;;;;;;;;4984486;28;20422;-81
2020/12/21 05:46:39;;;;;;;20.87;18.40;;;;;;;;;;5006947;28;20458;-82
2020/12/21 05:49:09;;;;;;;20.40;16.90;;;;;;;;;;5013504;28;20465;-82
2020/12/21 05:51:39;;;;;;;26.83;20.07;;;;;;;;;;4982643;28;20546;-82
2020/12/21 05:54:08;;;;;;;22.07;18.93;;;;;;;;;;5034120;23;20518;-81
2020/12/21 05:56:35;;;;;;;22.87;19.70;;;;;;;;;;5010429;28;20432;-82
2020/12/21 05:59:03;;;;;;;24.10;18.70;;;;;;;;;;5024240;28;20430;-82
2020/12/21 06:01:29;;;;;;;25.30;19.87;;;;;;;;;;5008596;28;20427;-83
2020/12/21 06:04:03;;;;;;;23.73;20.90;;;;;;;;;;5016227;28;20454;-83
2020/12/21 06:06:30;;;;;;;25.37;22.77;;;;;;;;;;5006646;28;20439;-83
2020/12/21 06:08:56;;;;;;;24.50;19.00;;;;;;;;;;5007350;28;20437;-83
2020/12/21 06:11:24;;;;;;;20.33;18.00;;;;;;;;;;5002012;28;20466;-80
2020/12/21 06:13:57;;;;;;;21.13;17.53;;;;;;;;;;5002528;28;20583;-82
2020/12/21 06:16:24;;;;;;;20.07;17.87;;;;;;;;;;5019222;28;20892;-81
2020/12/21 06:19:01;;;;;;;34.70;27.38;;;;;;;;;;5014348;28;20458;-81
2020/12/21 06:21:31;;;;;;;24.40;20.10;;;;;;;;;;5023310;28;20282;-82
2020/12/21 06:23:57;;;;;;;31.13;24.63;;;;;;;;;;5023283;28;20828;-82
2020/12/21 06:26:33;;;;;;;34.20;29.48;;;;;;;;;;5013127;28;20496;-82
2020/12/21 06:29:05;;;;;;;19.87;17.77;;;;;;;;;;4996677;28;20179;-81
2020/12/21 06:31:38;;;;;;;22.07;19.83;;;;;;;;;;5011441;28;20456;-83
2020/12/21 06:34:04;;;;;;;20.97;17.27;;;;;;;;;;5017971;28;20535;-83
2020/12/21 06:36:34;;;;;;;22.30;20.00;;;;;;;;;;4996698;28;20426;-81
2020/12/21 06:39:01;;;;;;;18.03;16.23;;;;;;;;;;5003216;28;20427;-82
2020/12/21 06:41:28;;;;;;;20.67;17.00;;;;;;;;;;5018168;28;20434;-83
2020/12/21 06:43:58;;;;;;;21.40;18.50;;;;;;;;;;5018781;28;20452;-83
2020/12/21 06:46:25;;;;;;;20.80;18.67;;;;;;;;;;5016037;28;20183;-83
2020/12/21 06:49:03;;;;;;;19.67;16.50;;;;;;;;;;5012477;28;20432;-84
2020/12/21 06:51:30;;;;;;;18.47;16.57;;;;;;;;;;5021175;28;20206;-82
2020/12/21 06:54:00;;;;;;;20.50;17.73;;;;;;;;;;5025572;28;20466;-83
2020/12/21 06:56:26;;;;;;;22.90;17.83;;;;;;;;;;5029163;28;21021;-83
2020/12/21 06:58:53;;;;;;;19.60;17.60;;;;;;;;;;5035345;28;20432;-81
2020/12/21 07:01:20;;;;;;;20.43;16.80;;;;;;;;;;5023824;28;20195;-84
2020/12/21 07:03:47;;;;;;;24.67;17.38;;;;;;;;;;4992230;28;20447;-82
2020/12/21 07:06:14;;;;;;;24.90;17.63;;;;;;;;;;5028231;28;20168;-83
2020/12/21 07:08:41;;;;;;;26.20;17.73;;;;;;;;;;5023145;28;20191;-82
2020/12/21 07:11:15;;;;;;;19.67;17.00;;;;;;;;;;5017051;28;20451;-82
2020/12/21 07:13:41;;;;;;;19.23;16.37;;;;;;;;;;5020977;28;20207;-83
2020/12/21 07:16:07;;;;;;;19.02;17.02;;;;;;;;;;5003850;28;20435;-82
2020/12/21 07:18:34;;;;;;;18.83;16.33;;;;;;;;;;5013410;28;20175;-83
2020/12/21 07:21:00;;;;;;;23.38;18.20;;;;;;;;;;5024112;28;20429;-84
2020/12/21 07:23:26;;;;;;;22.15;19.65;;;;;;;;;;5010974;28;20250;-83
2020/12/21 07:25:53;;;;;;;21.70;18.08;;;;;;;;;;5015564;28;20235;-83
2020/12/21 07:28:25;;;;;;;22.43;20.23;;;;;;;;;;5022749;28;20180;-82
2020/12/21 07:30:51;;;;;;;24.48;18.48;;;;;;;;;;5009493;28;20458;-83
2020/12/21 07:33:18;;;;;;;23.58;19.80;;;;;;;;;;5017613;28;20188;-84
2020/12/21 07:35:44;;;;;;;19.52;17.08;;;;;;;;;;5027273;28;20184;-84
2020/12/21 07:38:11;;;;;;;20.42;18.42;;;;;;;;;;5015730;28;20200;-81
2020/12/21 07:40:43;;;;;;;24.27;18.15;;;;;;;;;;5012347;28;20175;-81
2020/12/21 07:43:11;;;;;;;21.63;19.17;;;;;;;;;;5021822;28;20215;-79
2020/12/21 07:45:38;;;;;;;23.47;20.97;;;;;;;;;;5027384;28;20171;-81
2020/12/21 07:48:08;;;;;;;18.30;16.52;;;;;;;;;;5011385;28;20441;-81
2020/12/21 07:50:35;;;;;;;25.13;19.13;;;;;;;;;;5009812;28;20167;-81
2020/12/21 07:53:02;;;;;;;22.73;18.50;;;;;;;;;;5023589;28;20208;-84
2020/12/21 07:55:29;;;;;;;20.47;17.03;;;;;;;;;;5024913;28;20498;-82
2020/12/21 07:57:55;;;;;;;22.90;19.67;;;;;;;;;;5013933;28;20436;-80
2020/12/21 08:01:00;;;;;;;19.42;17.38;;;;;;;;;;4952000;29;20385;-82
2020/12/21 08:03:49;;;;;;;;;;;;;;;;;;;;;
2020/12/21 08:06:38;;;;;;;18.53;16.20;;;;;;;;;;5024173;28;20406;-80
2020/12/21 08:09:07;;;;;;;24.40;18.53;;;;;;;;;;5042613;28;20418;-79
2020/12/21 08:11:34;;;;;;;18.30;16.43;;;;;;;;;;5009647;28;20533;-81
2020/12/21 08:14:00;;;;;;;21.50;18.60;;;;;;;;;;5023219;28;20457;-79
2020/12/21 08:16:29;;;;;;;27.80;21.08;;;;;;;;;;5008325;28;20415;-80
2020/12/21 08:19:01;;;;;;;23.00;19.50;;;;;;;;;;5024380;28;20255;-81
2020/12/21 08:21:46;;;;;;;23.03;18.17;;;;;;;;;;5012244;28;20410;-80
2020/12/21 08:27:56;;;;;;;17.83;15.90;;;;;;;;;;5005462;28;20519;-81
2020/12/21 08:34:20;;;;;;;27.40;17.60;;;;;;;;;;5009598;28;20523;-84
2020/12/21 08:36:50;;;;;;;20.50;17.97;;;;;;;;;;5003481;28;20407;-83
2020/12/21 08:54:11;;;;;;;19.60;15.00;;;;;;;;;;2859449;23;20499;-82
2020/12/21 08:56:58;;;;;;;;;;;;;;;;;;;;;
2020/12/21 09:03:12;;;;;;;22.33;16.13;;;;;;;;;;5000287;28;20503;-79
2020/12/21 09:06:01;;;;;;;24.40;18.60;;;;;;;;;;4991519;28;20483;-83
2020/12/21 09:11:57;;;;;;;20.10;16.60;;;;;;;;;;4979818;28;20544;-83
2020/12/21 09:18:18;;;;;;;;;;;;;;;;;;;;;
2020/12/21 09:21:13;;;;;;;17.60;15.80;;;;;;;;;;4992603;28;20496;-84
2020/12/21 09:23:39;;;;;;;19.80;15.90;;;;;;;;;;5005781;28;20438;-82
2020/12/21 09:26:05;;;;;;;18.10;15.83;;;;;;;;;;4968727;28;20491;-82
2020/12/21 09:28:52;;;;;;;19.63;16.63;;;;;;;;;;4983363;28;20432;-84
2020/12/21 09:31:57;;;;;;;18.90;16.00;;;;;;;;;;4995745;28;20450;-83
2020/12/21 09:34:49;;;;;;;18.97;15.60;;;;;;;;;;4990513;28;20444;-85
2020/12/21 09:38:06;;;;;;;;;;;;;;;;;;;;;
2020/12/21 09:40:48;;;;;;;19.80;16.10;;;;;;;;;;4991848;28;20427;-84
2020/12/21 09:43:46;;;;;;;;;;;;;;;;;;;;;
2020/12/21 09:46:41;;;;;;;21.07;17.60;;;;;;;;;;4994402;28;20419;-84
2020/12/21 09:50:03;;;;;;;;;;;;;;;;;;;;;
2020/12/21 09:52:55;;;;;;;15.53;13.90;;;;;;;;;;4965847;28;20557;-83
2020/12/21 09:55:22;;;;;;;17.93;15.63;;;;;;;;;;4999362;28;20431;-83
2020/12/21 10:00:51;;;;;;;18.00;16.23;;;;;;;;;;5004872;28;20443;-83
2020/12/21 10:03:38;;;;;;;;;;;;;;;;;;;;;
2020/12/21 10:06:08;;;;;;;18.37;15.60;;;;;;;;;;5003822;28;20431;-85
2020/12/21 10:08:34;;;;;;;18.03;15.17;;;;;;;;;;5011736;28;20463;-80
2020/12/21 10:11:01;;;;;;;21.53;18.83;;;;;;;;;;4996208;28;20467;-82
2020/12/21 10:13:27;;;;;;;19.03;15.30;;;;;;;;;;5009835;28;20447;-80
2020/12/21 10:15:53;;;;;;;18.57;15.97;;;;;;;;;;5008686;28;20510;-83
2020/12/21 10:18:22;;;;;;;17.87;16.00;;;;;;;;;;5007674;28;20433;-82
2020/12/21 10:20:48;;;;;;;18.80;16.60;;;;;;;;;;5004196;28;20731;-84
2020/12/21 10:23:38;;;;;;;20.83;18.63;;;;;;;;;;5016704;28;20458;-83
2020/12/21 10:26:10;;;;;;;19.33;16.00;;;;;;;;;;5006005;28;20451;-83
2020/12/21 10:28:49;;;;;;;;;;;;;;;;;;;;;
2020/12/21 10:31:42;;;;;;;16.80;15.10;;;;;;;;;;5002461;28;20451;-84
2020/12/21 10:34:39;;;;;;;;;;;;;;;;;;;;;
2020/12/21 10:37:21;;;;;;;18.10;15.77;;;;;;;;;;5004807;28;20504;-84
2020/12/21 10:40:07;;;;;;;;;;;;;;;;;;;;;
2020/12/21 10:42:56;;;;;;;14.67;11.90;;;;;;;;;;4995668;28;20543;-84
2020/12/21 10:45:25;;;;;;;23.80;15.10;;;;;;;;;;4998234;28;21057;-83
2020/12/21 10:54:30;;;;;;;13.63;12.00;;;;;;;;;;4995917;28;20545;-84
2020/12/21 10:57:08;;;;;;;16.17;12.80;;;;;;;;;;4990096;28;20502;-83
2020/12/21 10:59:34;;;;;;;14.97;13.40;;;;;;;;;;4985141;28;20514;-84
2020/12/21 11:02:03;;;;;;;13.70;12.20;;;;;;;;;;4987161;28;20494;-83
2020/12/21 11:04:35;;;;;;;14.40;12.90;;;;;;;;;;5004008;28;20435;-80
2020/12/21 11:07:01;;;;;;;19.07;14.47;;;;;;;;;;5003150;28;20427;-82
2020/12/21 11:09:28;;;;;;;12.90;11.60;;;;;;;;;;4987915;28;20446;-82
2020/12/21 11:11:58;;;;;;;13.20;12.00;;;;;;;;;;5002233;28;20459;-84
2020/12/21 11:14:33;;;;;;;13.77;11.30;;;;;;;;;;5001536;28;20437;-82
2020/12/21 11:17:02;;;;;;;13.33;12.03;;;;;;;;;;5006307;28;20476;-82
2020/12/21 11:19:47;;;;;;;12.80;11.47;;;;;;;;;;5004734;28;20829;-84
2020/12/21 11:22:27;;;;;;;14.37;12.87;;;;;;;;;;4987074;28;20502;-83
2020/12/21 11:24:56;;;;;;;13.10;11.80;;;;;;;;;;5005501;28;20400;-82
2020/12/21 11:27:25;;;;;;;17.57;12.00;;;;;;;;;;5004995;28;20489;-81
2020/12/21 11:29:52;;;;;;;16.20;11.67;;;;;;;;;;4984769;28;20432;-82
2020/12/21 11:32:18;;;;;;;14.27;12.73;;;;;;;;;;4994333;28;21413;-84
2020/12/21 11:34:54;;;;;;;16.23;13.83;;;;;;;;;;4995944;28;20523;-83
2020/12/21 11:37:21;;;;;;;13.60;12.30;;;;;;;;;;5012807;28;20424;-83
2020/12/21 11:39:47;;;;;;;21.60;13.13;;;;;;;;;;5003021;28;20478;-83
2020/12/21 11:42:14;;;;;;;19.13;11.33;;;;;;;;;;4999662;28;21401;-82
2020/12/21 11:44:52;;;;;;;;;;;;;;;;;;;;;
2020/12/21 11:47:39;;;;;;;23.67;13.60;;;;;;;;;;5004640;28;20446;-84
2020/12/21 11:50:08;;;;;;;12.53;10.53;;;;;;;;;;5004565;28;20422;-84
2020/12/21 11:52:34;;;;;;;11.40;10.30;;;;;;;;;;4984206;28;20523;-82
2020/12/21 11:55:00;;;;;;;12.93;11.63;;;;;;;;;;4999835;28;20534;-83
2020/12/21 11:57:30;;;;;;;14.17;10.97;;;;;;;;;;4993163;28;20611;-83
2020/12/21 11:59:56;;;;;;;11.53;10.43;;;;;;;;;;4991325;28;20413;-83
2020/12/21 12:02:34;;;;;;;12.80;11.20;;;;;;;;;;4989676;28;20441;-83
2020/12/21 12:05:22;;;;;;;11.70;9.77;;;;;;;;;;4988319;28;20491;-82
2020/12/21 12:08:01;;;;;;;13.50;11.97;;;;;;;;;;4986238;28;20431;-84
2020/12/21 12:10:39;;;;;;;13.73;11.50;;;;;;;;;;4970610;28;20431;-83
2020/12/21 12:13:18;;;;;;;17.47;12.33;;;;;;;;;;4987351;28;20462;-82
2020/12/21 12:15:44;;;;;;;18.90;11.50;;;;;;;;;;4984532;28;20427;-82
2020/12/21 12:21:05;;;;;;;14.13;11.00;;;;;;;;;;4984207;28;20775;-82
2020/12/21 12:23:44;;;;;;;13.40;11.50;;;;;;;;;;4986054;28;20443;-82
2020/12/21 12:26:32;;;;;;;16.90;10.30;;;;;;;;;;5004241;28;20424;-84
2020/12/21 12:29:00;;;;;;;12.93;9.50;;;;;;;;;;4987095;28;20454;-83
2020/12/21 12:31:39;;;;;;;;;;;;;;;;;;;;;
2020/12/21 12:34:11;;;;;;;12.57;11.47;;;;;;;;;;5001032;28;20455;-84
2020/12/21 12:36:43;;;;;;;12.67;9.60;;;;;;;;;;4978140;28;20464;-82
2020/12/21 12:39:30;;;;;;;;;;;;;;;;;;;;;
2020/12/21 12:42:30;;;;;;;12.53;11.23;;;;;;;;;;4998611;28;21052;-84
2020/12/21 12:45:09;;;;;;;11.70;10.00;;;;;;;;;;4985906;28;20455;-84
2020/12/21 12:47:35;;;;;;;13.07;11.80;;;;;;;;;;4998308;28;20442;-84
2020/12/21 12:50:01;;;;;;;21.90;14.70;;;;;;;;;;4982629;28;20428;-83
2020/12/21 12:52:28;;;;;;;12.30;10.70;;;;;;;;;;4998321;28;20479;-82
2020/12/21 12:54:54;;;;;;;11.80;10.43;;;;;;;;;;5004352;28;20451;-83
2020/12/21 12:57:20;;;;;;;12.80;11.40;;;;;;;;;;4968062;28;20464;-83
2020/12/21 12:59:52;;;;;;;12.30;10.87;;;;;;;;;;4989911;28;20412;-85
2020/12/21 13:02:30;;;;;;;14.33;12.70;;;;;;;;;;4987539;28;20424;-82
2020/12/21 13:04:59;;;;;;;13.87;12.47;;;;;;;;;;4986507;28;20441;-84
2020/12/21 13:07:25;;;;;;;13.10;11.70;;;;;;;;;;4982704;28;20459;-83
2020/12/21 13:09:51;;;;;;;13.37;11.97;;;;;;;;;;4983399;28;20452;-84
2020/12/21 13:12:36;;;;;;;11.97;10.87;;;;;;;;;;4984970;28;20464;-83
2020/12/21 13:15:06;;;;;;;14.63;11.20;;;;;;;;;;4986110;28;20435;-83
2020/12/21 13:17:35;;;;;;;13.57;12.23;;;;;;;;;;4997389;28;20488;-82
2020/12/21 13:20:07;;;;;;;14.27;10.77;;;;;;;;;;4958942;28;20443;-85
2020/12/21 13:22:35;;;;;;;13.03;11.73;;;;;;;;;;4990666;28;20459;-83
2020/12/21 13:25:02;;;;;;;10.53;9.60;;;;;;;;;;4997268;28;20425;-82
2020/12/21 13:27:28;;;;;;;14.93;11.50;;;;;;;;;;5002707;28;20436;-85
2020/12/21 13:29:57;;;;;;;13.83;12.07;;;;;;;;;;4997056;28;20429;-83
2020/12/21 13:35:49;;;;;;;17.10;13.53;;;;;;;;;;5008580;28;20460;-83
2020/12/21 13:38:55;;;;;;;15.10;12.33;;;;;;;;;;4989020;28;20507;-85
2020/12/21 13:41:46;;;;;;;10.80;9.70;;;;;;;;;;4967956;28;20444;-82
2020/12/21 13:44:15;;;;;;;13.43;12.10;;;;;;;;;;4953609;28;20528;-84
2020/12/21 13:46:42;;;;;;;17.67;11.47;;;;;;;;;;4967259;28;20429;-83
2020/12/21 13:49:17;;;;;;;10.83;9.73;;;;;;;;;;4982826;28;20412;-84
2020/12/21 13:51:44;;;;;;;15.17;11.30;;;;;;;;;;4986692;28;20455;-84
2020/12/21 13:54:12;;;;;;;15.70;13.37;;;;;;;;;;5000004;28;20456;-86
2020/12/21 13:56:39;;;;;;;18.50;14.37;;;;;;;;;;4972747;28;20424;-83
2020/12/21 13:59:44;;;;;;;14.13;12.20;;;;;;;;;;4981637;28;20819;-85
2020/12/21 14:05:25;;;;;;;13.63;11.83;;;;;;;;;;5004769;28;20429;-83
2020/12/21 14:07:53;;;;;;;17.77;13.03;;;;;;;;;;4991896;28;20438;-84
2020/12/21 14:10:25;;;;;;;15.57;12.13;;;;;;;;;;4993337;28;20424;-83
2020/12/21 14:13:22;;;;;;;;;;;;;;;;;;;;;
2020/12/21 14:16:10;;;;;;;13.73;11.83;;;;;;;;;;5011149;28;20442;-84
2020/12/21 14:18:37;;;;;;;14.83;13.23;;;;;;;;;;5002357;28;20427;-83
2020/12/21 14:21:19;;;;;;;16.07;12.17;;;;;;;;;;5012913;28;20455;-83
2020/12/21 14:23:55;;;;;;;;;;;;;;;;;;;;;
2020/12/21 14:26:54;;;;;;;15.13;12.50;;;;;;;;;;4985637;28;20541;-84
2020/12/21 14:29:20;;;;;;;15.83;14.23;;;;;;;;;;4963537;28;20539;-84
2020/12/21 14:31:46;;;;;;;16.17;12.10;;;;;;;;;;4970851;28;20468;-84
2020/12/21 14:34:26;;;;;;;16.60;13.45;;;;;;;;;;4957654;29;20437;-84
2020/12/21 14:37:02;;;;;;;21.20;15.23;;;;;;;;;;4951909;29;20187;-83
2020/12/21 14:39:28;;;;;;;19.93;13.97;;;;;;;;;;5022747;23;20492;-82
2020/12/21 14:42:13;;;;;;;16.85;13.20;;;;;;;;;;4979831;28;20441;-83
2020/12/21 14:44:48;;;;;;;16.80;14.20;;;;;;;;;;4978777;28;20178;-82
2020/12/21 14:47:21;;;;;;;15.50;13.90;;;;;;;;;;4980247;28;20785;-80
2020/12/21 14:53:33;;;;;;;13.40;12.10;;;;;;;;;;4980914;28;20774;-80
2020/12/21 14:56:22;;;;;;;14.77;13.40;;;;;;;;;;4987968;28;20431;-79
2020/12/21 14:58:48;;;;;;;16.63;14.05;;;;;;;;;;4985771;28;20444;-81
2020/12/21 15:01:28;;;;;;;;;;;;;;;;;;;;;
2020/12/21 15:04:14;;;;;;;12.67;11.43;;;;;;;;;;4978442;28;20528;-81
2020/12/21 15:10:14;;;;;;;15.45;13.75;;;;;;;;;;5033195;23;20526;-79
2020/12/21 15:13:13;;;;;;;;;;;;;;;;;;;;;
2020/12/21 15:15:49;;;;;;;17.80;14.37;;;;;;;;;;5000321;28;20177;-83
2020/12/21 15:18:26;;;;;;;;;;;;;;;;;;;;;
2020/12/21 15:21:14;;;;;;;16.15;13.55;;;;;;;;;;5007721;28;20160;-80
2020/12/21 15:24:17;;;;;;;17.40;13.35;;;;;;;;;;5084972;23;20219;-83
2020/12/21 15:26:43;;;;;;;16.67;14.00;;;;;;;;;;4969412;28;20188;-81
2020/12/21 15:29:09;;;;;;;17.63;14.20;;;;;;;;;;5003072;28;20267;-82
2020/12/21 15:31:35;;;;;;;17.35;15.60;;;;;;;;;;4969027;28;20451;-83
2020/12/21 15:34:02;;;;;;;13.93;12.50;;;;;;;;;;4974199;28;20200;-83
2020/12/21 15:36:29;;;;;;;19.37;13.63;;;;;;;;;;4982549;28;20181;-82
2020/12/21 15:38:55;;;;;;;15.63;12.70;;;;;;;;;;4968283;28;20463;-83
2020/12/21 15:41:21;;;;;;;17.73;15.88;;;;;;;;;;4984403;28;20290;-82
2020/12/21 15:43:47;;;;;;;15.17;13.57;;;;;;;;;;4975694;28;20190;-83
2020/12/21 15:46:14;;;;;;;16.10;14.45;;;;;;;;;;4950525;29;20425;-82
2020/12/21 15:49:05;;;;;;;17.33;14.10;;;;;;;;;;4982966;28;20173;-82
2020/12/21 15:51:34;;;;;;;19.10;15.20;;;;;;;;;;4983592;28;20201;-82
2020/12/21 15:54:01;;;;;;;15.85;14.40;;;;;;;;;;4984304;28;20209;-82
2020/12/21 15:56:27;;;;;;;16.42;14.43;;;;;;;;;;4969044;28;20185;-82
2020/12/21 15:58:53;;;;;;;17.33;13.10;;;;;;;;;;4986779;28;20170;-82